Time;durP1;ratioP1;P1;durP2;ratioP2;P2;SDS_P1;SDS_P2;PMS_P1;PMS_P2;Temp;Humidity;BMP_temperature;BMP_pressure;BME280_temperature;BME280_humidity;BME280_pressure;Samples;Min_cycle;Max_cycle;Signal;HPM_P1;HPM_P2
2023/01/24 00:00:34;;;;;;;21.80;11.50;;;;;;;;;;5066222;28;20113;-59
2023/01/24 00:02:59;;;;;;;23.10;12.07;;;;;;;;;;5064749;28;20036;-59
2023/01/24 00:05:25;;;;;;;18.73;10.88;;;;;;;;;;5066543;28;20029;-59
2023/01/24 00:07:50;;;;;;;14.13;8.38;;;;;;;;;;5066169;28;20048;-59
2023/01/24 00:10:15;;;;;;;15.20;8.48;;;;;;;;;;5065218;28;20031;-59
2023/01/24 00:12:40;;;;;;;15.65;8.73;;;;;;;;;;5061432;28;20041;-59
2023/01/24 00:15:06;;;;;;;16.70;9.55;;;;;;;;;;5066258;28;20028;-59
2023/01/24 00:17:31;;;;;;;19.45;10.82;;;;;;;;;;5065995;28;20039;-59
2023/01/24 00:19:56;;;;;;;18.08;9.52;;;;;;;;;;5065564;28;20027;-59
2023/01/24 00:22:22;;;;;;;18.42;10.18;;;;;;;;;;5063096;28;20021;-59
2023/01/24 00:24:48;;;;;;;16.38;9.05;;;;;;;;;;5066894;28;20454;-59
2023/01/24 00:27:13;;;;;;;15.50;7.38;;;;;;;;;;5065823;28;20017;-59
2023/01/24 00:29:38;;;;;;;11.77;6.82;;;;;;;;;;5063876;28;20054;-59
2023/01/24 00:32:04;;;;;;;14.25;7.93;;;;;;;;;;5066136;28;20054;-59
2023/01/24 00:34:29;;;;;;;17.52;10.00;;;;;;;;;;5064598;28;20036;-59
2023/01/24 00:36:54;;;;;;;22.10;10.63;;;;;;;;;;5065750;28;20031;-59
2023/01/24 00:39:19;;;;;;;21.65;11.45;;;;;;;;;;5065195;28;20028;-60
2023/01/24 00:41:45;;;;;;;20.70;11.52;;;;;;;;;;5063132;28;20021;-61
2023/01/24 00:44:10;;;;;;;21.83;11.50;;;;;;;;;;5062719;28;20028;-59
2023/01/24 00:46:35;;;;;;;24.30;11.98;;;;;;;;;;5064537;28;20085;-59
2023/01/24 00:49:00;;;;;;;22.33;11.93;;;;;;;;;;5064973;28;20036;-59
2023/01/24 00:51:26;;;;;;;22.65;12.05;;;;;;;;;;5064957;28;20078;-59
2023/01/24 00:53:51;;;;;;;24.83;11.52;;;;;;;;;;5065751;28;20036;-59
2023/01/24 00:56:16;;;;;;;21.95;11.65;;;;;;;;;;5065042;28;20028;-59
2023/01/24 00:58:41;;;;;;;22.17;12.13;;;;;;;;;;5065414;28;20032;-59
2023/01/24 01:01:07;;;;;;;20.75;10.80;;;;;;;;;;5064286;28;20012;-59
2023/01/24 01:03:32;;;;;;;24.95;11.80;;;;;;;;;;5060600;28;20028;-59
2023/01/24 01:06:06;;;;;;;19.60;11.20;;;;;;;;;;5065135;28;20031;-59
2023/01/24 01:08:31;;;;;;;22.80;11.27;;;;;;;;;;5066465;28;20048;-59
2023/01/24 01:10:57;;;;;;;22.08;10.98;;;;;;;;;;5068959;28;20427;-60
2023/01/24 01:13:22;;;;;;;19.98;10.93;;;;;;;;;;5069737;28;20466;-59
2023/01/24 01:15:47;;;;;;;19.23;9.27;;;;;;;;;;5068036;28;20028;-59
2023/01/24 01:18:12;;;;;;;18.90;9.70;;;;;;;;;;5068126;28;20031;-59
2023/01/24 01:20:38;;;;;;;18.52;10.70;;;;;;;;;;5068837;28;20028;-59
2023/01/24 01:23:03;;;;;;;20.38;10.77;;;;;;;;;;5065749;28;20022;-59
2023/01/24 01:25:28;;;;;;;18.58;9.95;;;;;;;;;;5068843;28;20478;-59
2023/01/24 01:27:53;;;;;;;18.35;10.20;;;;;;;;;;5068952;28;20020;-59
2023/01/24 01:30:19;;;;;;;20.65;10.98;;;;;;;;;;5064877;28;20131;-59
2023/01/24 01:32:44;;;;;;;17.08;9.98;;;;;;;;;;5069339;28;20091;-59
2023/01/24 01:35:09;;;;;;;18.25;10.00;;;;;;;;;;5069442;28;20484;-59
2023/01/24 01:37:34;;;;;;;16.70;9.63;;;;;;;;;;5067627;28;20029;-59
2023/01/24 01:40:00;;;;;;;15.25;8.90;;;;;;;;;;5065890;28;20020;-59
2023/01/24 01:42:25;;;;;;;18.40;9.65;;;;;;;;;;5064446;28;20103;-58
2023/01/24 01:44:52;;;;;;;15.02;9.18;;;;;;;;;;5076955;28;20078;-60
2023/01/24 01:47:28;;;;;;;18.08;9.48;;;;;;;;;;5067631;28;20332;-58
2023/01/24 01:49:53;;;;;;;17.00;9.73;;;;;;;;;;5068332;28;20115;-59
2023/01/24 01:52:18;;;;;;;20.85;10.82;;;;;;;;;;5068948;28;20519;-59
2023/01/24 01:54:44;;;;;;;15.52;8.50;;;;;;;;;;5068200;28;20033;-59
2023/01/24 01:57:22;;;;;;;17.65;9.45;;;;;;;;;;5068658;28;20035;-58
2023/01/24 01:59:50;;;;;;;18.02;9.70;;;;;;;;;;5067155;28;20029;-59
2023/01/24 02:02:15;;;;;;;16.90;10.02;;;;;;;;;;5066701;28;20459;-58
2023/01/24 02:04:43;;;;;;;17.38;9.57;;;;;;;;;;5068505;28;20028;-58
2023/01/24 02:07:09;;;;;;;19.08;10.48;;;;;;;;;;5068456;28;20035;-59
2023/01/24 02:09:39;;;;;;;19.27;10.63;;;;;;;;;;5068467;28;20283;-59
2023/01/24 02:12:10;;;;;;;21.70;11.80;;;;;;;;;;5066878;28;20028;-59
2023/01/24 02:17:19;;;;;;;22.42;10.68;;;;;;;;;;5067408;28;20482;-58
2023/01/24 02:20:03;;;;;;;21.75;11.23;;;;;;;;;;5065080;28;20028;-58
2023/01/24 02:22:56;;;;;;;17.98;10.07;;;;;;;;;;5066211;28;20103;-59
2023/01/24 02:25:27;;;;;;;20.52;10.05;;;;;;;;;;5067848;28;20052;-59
2023/01/24 02:27:52;;;;;;;19.65;10.63;;;;;;;;;;5068286;28;20078;-59
2023/01/24 02:30:18;;;;;;;17.38;8.43;;;;;;;;;;5063729;28;20115;-58
2023/01/24 02:32:43;;;;;;;17.17;9.35;;;;;;;;;;5068679;28;20347;-58
2023/01/24 02:35:21;;;;;;;18.02;10.07;;;;;;;;;;5067798;28;20028;-58
2023/01/24 02:37:46;;;;;;;21.70;10.23;;;;;;;;;;5068271;28;20035;-58
2023/01/24 02:40:11;;;;;;;15.45;8.77;;;;;;;;;;5067986;28;20020;-59
2023/01/24 02:42:37;;;;;;;15.88;9.13;;;;;;;;;;5061682;28;20605;-59
2023/01/24 02:45:10;;;;;;;17.77;9.00;;;;;;;;;;5067372;28;20438;-59
2023/01/24 02:47:37;;;;;;;16.90;9.32;;;;;;;;;;5067805;28;20398;-59
2023/01/24 02:50:02;;;;;;;17.55;9.60;;;;;;;;;;5061195;28;20468;-59
2023/01/24 02:55:11;;;;;;;13.55;7.20;;;;;;;;;;5067079;28;20082;-59
2023/01/24 03:00:20;;;;;;;13.52;7.78;;;;;;;;;;5061948;28;20055;-59
2023/01/24 03:02:45;;;;;;;17.17;8.65;;;;;;;;;;5068145;28;20401;-59
2023/01/24 03:05:11;;;;;;;14.18;8.73;;;;;;;;;;5077470;28;20055;-59
2023/01/24 03:07:44;;;;;;;18.00;9.25;;;;;;;;;;5067237;28;20385;-59
2023/01/24 03:10:10;;;;;;;17.60;9.73;;;;;;;;;;5064956;28;20091;-59
2023/01/24 03:34:33;;;;;;;20.30;10.15;;;;;;;;;;5066316;28;20125;-59
2023/01/24 03:37:01;;;;;;;13.98;7.55;;;;;;;;;;5065061;28;20025;-59
2023/01/24 03:42:10;;;;;;;17.02;8.85;;;;;;;;;;5065449;28;20085;-60
2023/01/24 03:44:35;;;;;;;20.52;10.13;;;;;;;;;;5066536;28;20013;-59
2023/01/24 03:47:00;;;;;;;18.55;9.88;;;;;;;;;;5066493;28;20466;-59
2023/01/24 03:52:30;;;;;;;20.08;10.38;;;;;;;;;;5064207;28;20043;-59
2023/01/24 03:54:56;;;;;;;18.73;10.10;;;;;;;;;;5063126;28;20499;-59
2023/01/24 03:57:21;;;;;;;17.02;9.30;;;;;;;;;;5061680;28;20059;-59
2023/01/24 03:59:47;;;;;;;15.95;8.35;;;;;;;;;;5061281;28;20033;-59
2023/01/24 04:02:12;;;;;;;19.00;10.40;;;;;;;;;;5062564;28;20017;-59
2023/01/24 04:07:21;;;;;;;17.73;9.75;;;;;;;;;;5063884;28;20504;-59
2023/01/24 04:09:46;;;;;;;11.00;6.57;;;;;;;;;;5061821;28;20059;-59
2023/01/24 04:12:11;;;;;;;16.77;6.90;;;;;;;;;;5064869;28;20502;-59
2023/01/24 04:14:36;;;;;;;14.07;7.28;;;;;;;;;;5066287;28;20116;-59
2023/01/24 04:17:02;;;;;;;13.75;7.88;;;;;;;;;;5066377;28;20090;-59
2023/01/24 04:19:27;;;;;;;12.90;7.45;;;;;;;;;;5064650;28;20043;-59
2023/01/24 04:21:52;;;;;;;15.88;8.70;;;;;;;;;;5066504;28;20310;-59
2023/01/24 04:24:17;;;;;;;17.95;8.90;;;;;;;;;;5066018;28;20029;-59
2023/01/24 04:26:43;;;;;;;16.00;8.10;;;;;;;;;;5065050;28;20111;-59
2023/01/24 04:29:08;;;;;;;16.48;8.70;;;;;;;;;;5066066;28;20016;-59
2023/01/24 04:31:33;;;;;;;11.63;6.57;;;;;;;;;;5065785;28;20038;-59
2023/01/24 04:33:58;;;;;;;7.72;4.75;;;;;;;;;;5065850;28;20335;-59
2023/01/24 04:36:24;;;;;;;13.35;7.10;;;;;;;;;;5066170;28;20017;-59
2023/01/24 04:38:49;;;;;;;16.25;8.02;;;;;;;;;;5064416;28;20012;-59
2023/01/24 04:41:14;;;;;;;13.68;7.97;;;;;;;;;;5060644;28;20729;-59
2023/01/24 04:43:40;;;;;;;15.23;8.75;;;;;;;;;;5065578;28;20097;-59
2023/01/24 04:46:05;;;;;;;16.20;8.63;;;;;;;;;;5065093;28;20040;-59
2023/01/24 04:48:30;;;;;;;13.05;7.43;;;;;;;;;;5065155;28;20098;-59
2023/01/24 04:50:59;;;;;;;16.55;8.68;;;;;;;;;;5063965;28;20025;-59
2023/01/24 04:53:24;;;;;;;16.50;9.13;;;;;;;;;;5065708;28;20037;-59
2023/01/24 04:55:49;;;;;;;18.10;9.07;;;;;;;;;;5065553;28;20020;-60
2023/01/24 04:58:15;;;;;;;20.65;9.68;;;;;;;;;;5065839;28;20739;-59
2023/01/24 05:00:40;;;;;;;17.90;8.57;;;;;;;;;;5064799;28;20036;-59
2023/01/24 05:03:05;;;;;;;18.20;9.77;;;;;;;;;;5061567;28;20025;-59
2023/01/24 05:05:30;;;;;;;13.35;7.75;;;;;;;;;;5060765;28;20025;-59
2023/01/24 05:07:56;;;;;;;15.40;9.05;;;;;;;;;;5061302;28;20846;-59
2023/01/24 05:10:23;;;;;;;14.68;8.18;;;;;;;;;;5063881;28;20013;-59
2023/01/24 05:12:48;;;;;;;16.75;9.68;;;;;;;;;;5079243;28;20033;-59
2023/01/24 05:15:13;;;;;;;18.90;9.07;;;;;;;;;;5063065;28;20396;-59
2023/01/24 05:17:38;;;;;;;19.13;9.38;;;;;;;;;;5063875;28;20029;-59
2023/01/24 05:20:04;;;;;;;17.75;9.70;;;;;;;;;;5060513;28;20021;-59
2023/01/24 05:22:29;;;;;;;15.95;8.80;;;;;;;;;;5061781;28;20033;-59
2023/01/24 05:24:54;;;;;;;16.67;9.50;;;;;;;;;;5064764;28;20437;-59
2023/01/24 05:27:20;;;;;;;19.05;9.25;;;;;;;;;;5060843;28;20573;-59
2023/01/24 05:29:45;;;;;;;15.63;8.90;;;;;;;;;;5061565;28;20514;-59
2023/01/24 05:32:10;;;;;;;19.40;10.75;;;;;;;;;;5060754;28;20601;-59
2023/01/24 05:34:35;;;;;;;18.38;9.70;;;;;;;;;;5064000;28;20315;-59
2023/01/24 05:37:00;;;;;;;18.13;10.05;;;;;;;;;;5061679;28;20047;-59
2023/01/24 05:39:26;;;;;;;14.60;8.25;;;;;;;;;;5060979;28;20431;-59
2023/01/24 05:41:51;;;;;;;16.30;8.95;;;;;;;;;;5064721;28;20446;-59
2023/01/24 05:44:16;;;;;;;17.08;9.40;;;;;;;;;;5065425;28;20031;-59
2023/01/24 05:46:43;;;;;;;17.05;9.48;;;;;;;;;;5064512;28;20093;-59
2023/01/24 05:49:08;;;;;;;20.30;10.27;;;;;;;;;;5060433;28;20348;-59
2023/01/24 05:51:33;;;;;;;16.70;8.93;;;;;;;;;;5061059;28;20032;-60
2023/01/24 05:53:59;;;;;;;17.20;9.80;;;;;;;;;;5067359;28;20197;-59
2023/01/24 05:56:24;;;;;;;17.20;9.73;;;;;;;;;;5067183;28;20385;-59
2023/01/24 05:58:49;;;;;;;19.63;11.25;;;;;;;;;;5067864;28;20492;-59
2023/01/24 06:01:18;;;;;;;22.27;11.15;;;;;;;;;;5061667;28;20473;-59
2023/01/24 06:03:44;;;;;;;19.65;10.57;;;;;;;;;;5065304;28;20016;-59
2023/01/24 06:06:10;;;;;;;22.90;10.85;;;;;;;;;;5066284;28;20027;-59
2023/01/24 06:08:35;;;;;;;18.35;9.65;;;;;;;;;;5063977;28;20452;-59
2023/01/24 06:11:02;;;;;;;21.73;11.27;;;;;;;;;;5063050;28;20046;-59
2023/01/24 06:13:27;;;;;;;23.73;11.90;;;;;;;;;;5065645;28;20033;-60
2023/01/24 06:15:53;;;;;;;20.45;11.40;;;;;;;;;;5064966;28;20086;-59
2023/01/24 06:18:18;;;;;;;25.33;12.40;;;;;;;;;;5065371;28;20035;-60
2023/01/24 06:20:44;;;;;;;24.63;12.10;;;;;;;;;;5065237;28;20028;-59
2023/01/24 06:23:20;;;;;;;26.05;13.57;;;;;;;;;;5062950;28;20036;-60
2023/01/24 06:25:45;;;;;;;22.85;11.75;;;;;;;;;;5055250;28;20024;-60
2023/01/24 06:28:11;;;;;;;20.95;10.95;;;;;;;;;;5065975;28;20133;-59
2023/01/24 06:30:37;;;;;;;18.48;10.75;;;;;;;;;;5068213;28;20016;-59
2023/01/24 06:33:08;;;;;;;23.23;11.10;;;;;;;;;;5057855;28;20513;-59
2023/01/24 06:35:34;;;;;;;21.20;11.05;;;;;;;;;;5067545;28;20024;-60
2023/01/24 06:37:59;;;;;;;18.15;9.90;;;;;;;;;;5068028;28;20483;-59
2023/01/24 06:40:24;;;;;;;22.13;10.75;;;;;;;;;;5067256;28;20016;-60
2023/01/24 06:42:50;;;;;;;23.35;11.70;;;;;;;;;;5064827;28;20055;-59
2023/01/24 06:45:15;;;;;;;19.58;10.38;;;;;;;;;;5065708;28;20035;-59
2023/01/24 06:47:41;;;;;;;21.25;10.95;;;;;;;;;;5068058;28;20463;-59
2023/01/24 06:50:08;;;;;;;21.15;11.35;;;;;;;;;;5063659;28;20028;-59
2023/01/24 06:52:34;;;;;;;19.20;10.20;;;;;;;;;;5067683;28;21349;-59
2023/01/24 06:54:59;;;;;;;22.58;11.88;;;;;;;;;;5066294;28;20020;-59
2023/01/24 06:57:24;;;;;;;26.48;12.48;;;;;;;;;;5067209;28;20045;-59
2023/01/24 06:59:49;;;;;;;21.50;11.68;;;;;;;;;;5063934;28;20051;-59
2023/01/24 07:02:15;;;;;;;25.50;12.65;;;;;;;;;;5065757;28;20024;-59
2023/01/24 07:04:40;;;;;;;24.17;12.13;;;;;;;;;;5066484;28;20025;-59
2023/01/24 07:07:06;;;;;;;23.80;12.77;;;;;;;;;;5067455;28;20039;-59
2023/01/24 07:09:31;;;;;;;21.90;12.50;;;;;;;;;;5064967;28;20041;-59
2023/01/24 07:11:58;;;;;;;25.08;13.13;;;;;;;;;;5067633;28;20032;-59
2023/01/24 07:14:23;;;;;;;24.65;13.15;;;;;;;;;;5067502;28;20098;-59
2023/01/24 07:16:49;;;;;;;30.50;14.60;;;;;;;;;;5067383;28;20060;-59
2023/01/24 07:19:15;;;;;;;30.35;13.98;;;;;;;;;;5066237;28;20538;-59
2023/01/24 07:21:41;;;;;;;27.42;14.77;;;;;;;;;;5067255;28;20032;-59
2023/01/24 07:24:09;;;;;;;27.90;14.10;;;;;;;;;;5067410;28;20547;-60
2023/01/24 07:26:35;;;;;;;26.95;14.27;;;;;;;;;;5065657;28;20122;-60
2023/01/24 07:29:00;;;;;;;25.23;12.60;;;;;;;;;;5063715;28;20090;-59
2023/01/24 07:31:25;;;;;;;21.70;11.55;;;;;;;;;;5066003;28;20035;-59
2023/01/24 07:33:50;;;;;;;21.83;11.98;;;;;;;;;;5063686;28;20148;-60
2023/01/24 07:36:16;;;;;;;24.85;13.38;;;;;;;;;;5067082;28;20017;-59
2023/01/24 07:38:41;;;;;;;31.05;14.02;;;;;;;;;;5066906;28;20051;-59
2023/01/24 07:41:10;;;;;;;30.77;14.45;;;;;;;;;;5061900;28;20780;-59
2023/01/24 07:43:35;;;;;;;29.30;13.88;;;;;;;;;;5053231;28;20119;-59
2023/01/24 07:46:00;;;;;;;26.45;13.75;;;;;;;;;;5066418;28;20116;-59
2023/01/24 07:48:25;;;;;;;26.58;14.65;;;;;;;;;;5063802;28;20035;-59
2023/01/24 07:50:50;;;;;;;26.63;13.45;;;;;;;;;;5066856;28;21397;-59
2023/01/24 07:53:16;;;;;;;32.05;15.55;;;;;;;;;;5066987;28;20020;-59
2023/01/24 07:55:41;;;;;;;27.95;14.60;;;;;;;;;;5066443;28;20020;-59
2023/01/24 07:58:06;;;;;;;29.90;15.10;;;;;;;;;;5066238;28;20016;-59
2023/01/24 08:00:31;;;;;;;30.25;15.70;;;;;;;;;;5064692;28;20039;-59
2023/01/24 08:02:57;;;;;;;31.35;15.70;;;;;;;;;;5064405;28;20541;-59
2023/01/24 08:05:22;;;;;;;38.53;17.60;;;;;;;;;;5064368;28;20025;-59
2023/01/24 08:07:47;;;;;;;36.72;17.17;;;;;;;;;;5062190;28;20039;-60
2023/01/24 08:10:13;;;;;;;32.00;15.82;;;;;;;;;;5066793;28;20039;-59
2023/01/24 08:12:39;;;;;;;26.10;13.60;;;;;;;;;;5065897;28;20940;-59
2023/01/24 08:15:06;;;;;;;27.23;13.80;;;;;;;;;;5065122;28;20060;-59
2023/01/24 08:17:31;;;;;;;23.58;12.35;;;;;;;;;;5065221;28;20115;-59
2023/01/24 08:19:56;;;;;;;24.70;12.55;;;;;;;;;;5064133;28;20119;-59
2023/01/24 08:22:22;;;;;;;28.48;13.38;;;;;;;;;;5064276;28;20181;-59
2023/01/24 08:24:47;;;;;;;25.00;12.98;;;;;;;;;;5066221;28;20064;-59
2023/01/24 08:27:12;;;;;;;32.42;14.50;;;;;;;;;;5065562;28;20024;-59
2023/01/24 08:29:37;;;;;;;27.42;12.85;;;;;;;;;;5064754;28;20025;-59
2023/01/24 08:32:03;;;;;;;30.55;14.70;;;;;;;;;;5065452;28;20052;-59
2023/01/24 08:34:28;;;;;;;27.33;14.68;;;;;;;;;;5064916;28;20115;-59
2023/01/24 08:36:53;;;;;;;28.52;14.13;;;;;;;;;;5064976;28;20089;-59
2023/01/24 08:39:18;;;;;;;27.30;14.57;;;;;;;;;;5065015;28;20178;-59
2023/01/24 08:41:45;;;;;;;32.88;15.40;;;;;;;;;;5060649;28;20024;-59
2023/01/24 08:44:11;;;;;;;25.90;13.15;;;;;;;;;;5056628;28;20549;-59
2023/01/24 08:46:36;;;;;;;27.92;13.43;;;;;;;;;;5064763;28;20143;-59
2023/01/24 08:49:02;;;;;;;30.10;15.02;;;;;;;;;;5061832;28;20115;-59
2023/01/24 08:51:27;;;;;;;32.72;16.17;;;;;;;;;;5064347;28;20120;-59
2023/01/24 08:53:52;;;;;;;32.58;15.82;;;;;;;;;;5064425;28;20094;-59
2023/01/24 08:56:17;;;;;;;26.55;15.10;;;;;;;;;;5065006;28;20024;-59
2023/01/24 08:58:43;;;;;;;31.10;16.30;;;;;;;;;;5063468;28;20033;-59
2023/01/24 09:01:08;;;;;;;36.15;16.10;;;;;;;;;;5065666;28;20032;-59
2023/01/24 09:03:33;;;;;;;42.30;19.52;;;;;;;;;;5064983;28;20489;-59
2023/01/24 09:05:59;;;;;;;34.33;16.98;;;;;;;;;;5065989;28;20908;-59
2023/01/24 09:08:24;;;;;;;31.90;15.30;;;;;;;;;;5064707;28;20052;-59
2023/01/24 09:10:49;;;;;;;32.17;14.85;;;;;;;;;;5066202;28;20036;-59
2023/01/24 09:13:14;;;;;;;27.33;13.68;;;;;;;;;;5065135;28;20105;-58
2023/01/24 09:15:40;;;;;;;26.27;12.90;;;;;;;;;;5065802;28;20078;-59
2023/01/24 09:18:05;;;;;;;31.00;15.35;;;;;;;;;;5065358;28;20461;-59
2023/01/24 09:20:30;;;;;;;30.95;14.80;;;;;;;;;;5064931;28;20024;-59
2023/01/24 09:22:55;;;;;;;36.78;17.77;;;;;;;;;;5065731;28;20081;-59
2023/01/24 09:25:21;;;;;;;35.28;17.20;;;;;;;;;;5064451;28;20012;-59
2023/01/24 09:27:51;;;;;;;34.00;17.00;;;;;;;;;;5065832;28;20052;-59
2023/01/24 09:30:16;;;;;;;;;;;;;;;;;;5065746;28;20050;-59
2023/01/24 09:32:44;;;;;;;35.95;15.68;;;;;;;;;;5084728;28;19912;-60
2023/01/24 09:35:09;;;;;;;34.78;16.67;;;;;;;;;;5068712;28;20289;-59
2023/01/24 09:37:34;;;;;;;38.28;16.73;;;;;;;;;;5067296;28;20074;-60
2023/01/24 09:39:59;;;;;;;44.17;17.45;;;;;;;;;;5065864;28;20036;-60
2023/01/24 09:42:40;;;;;;;33.30;15.32;;;;;;;;;;5065849;28;20093;-59
2023/01/24 09:45:24;;;;;;;37.17;17.10;;;;;;;;;;5068754;28;20036;-60
2023/01/24 09:47:53;;;;;;;31.92;14.63;;;;;;;;;;5066725;28;20031;-60
2023/01/24 09:50:34;;;;;;;33.60;15.90;;;;;;;;;;5066901;28;20052;-60
2023/01/24 09:52:59;;;;;;;40.40;17.63;;;;;;;;;;5064714;28;20028;-60
2023/01/24 09:55:26;;;;;;;35.88;17.80;;;;;;;;;;5066771;28;20081;-60
2023/01/24 09:58:18;;;;;;;39.05;17.20;;;;;;;;;;5065319;28;20050;-60
2023/01/24 10:00:43;;;;;;;42.00;17.23;;;;;;;;;;5068221;28;20039;-60
2023/01/24 10:03:12;;;;;;;40.25;18.02;;;;;;;;;;5065909;28;20029;-60
2023/01/24 10:05:41;;;;;;;40.33;18.27;;;;;;;;;;5065394;28;20020;-59
2023/01/24 10:08:12;;;;;;;36.45;16.50;;;;;;;;;;5068280;28;20495;-59
2023/01/24 10:10:43;;;;;;;32.38;14.18;;;;;;;;;;5068840;28;20029;-60
2023/01/24 10:13:27;;;;;;;34.50;17.05;;;;;;;;;;5068504;28;20083;-60
2023/01/24 10:15:57;;;;;;;37.33;18.42;;;;;;;;;;5066765;28;20059;-60
2023/01/24 10:18:41;;;;;;;40.55;18.98;;;;;;;;;;5067205;28;20028;-59
2023/01/24 10:21:09;;;;;;;41.55;17.48;;;;;;;;;;5068779;28;20028;-59
2023/01/24 10:23:36;;;;;;;38.88;17.50;;;;;;;;;;5065745;28;20032;-60
2023/01/24 10:26:16;;;;;;;41.67;16.63;;;;;;;;;;5068135;28;20379;-60
2023/01/24 10:28:43;;;;;;;44.00;20.27;;;;;;;;;;5063168;28;20063;-59
2023/01/24 10:31:14;;;;;;;54.10;20.83;;;;;;;;;;5068659;28;20541;-60
2023/01/24 10:33:39;;;;;;;;;;;;;;;;;;5065024;28;20044;-58
2023/01/24 10:36:06;;;;;;;34.10;15.75;;;;;;;;;;5067901;28;19978;-59
2023/01/24 10:38:32;;;;;;;44.45;20.80;;;;;;;;;;5066574;28;21160;-59
2023/01/24 10:41:20;;;;;;;38.78;18.42;;;;;;;;;;5067052;28;20103;-58
2023/01/24 10:43:48;;;;;;;37.65;17.42;;;;;;;;;;5055079;28;20035;-60
2023/01/24 10:46:16;;;;;;;38.35;18.05;;;;;;;;;;5062985;28;20032;-60
2023/01/24 10:48:42;;;;;;;43.58;19.52;;;;;;;;;;5066310;28;20482;-59
2023/01/24 10:51:14;;;;;;;45.65;21.15;;;;;;;;;;5057869;28;20394;-60
2023/01/24 10:53:39;;;;;;;42.65;20.70;;;;;;;;;;5063943;28;20056;-59
2023/01/24 10:56:04;;;;;;;45.05;20.20;;;;;;;;;;5059767;28;20064;-63
2023/01/24 10:58:35;;;;;;;44.97;19.88;;;;;;;;;;5059231;28;20318;-59
2023/01/24 11:01:04;;;;;;;44.70;20.30;;;;;;;;;;5068056;28;20101;-59
2023/01/24 11:03:30;;;;;;;32.72;15.50;;;;;;;;;;5062840;28;20027;-59
2023/01/24 11:05:56;;;;;;;39.95;18.63;;;;;;;;;;5061518;28;20020;-58
2023/01/24 11:08:22;;;;;;;42.28;20.77;;;;;;;;;;5066173;28;20045;-58
2023/01/24 11:10:50;;;;;;;39.10;16.70;;;;;;;;;;5067402;28;20043;-58
2023/01/24 11:13:34;;;;;;;41.45;18.02;;;;;;;;;;5067150;28;20032;-58
2023/01/24 11:16:15;;;;;;;34.38;16.10;;;;;;;;;;5059882;28;20123;-58
2023/01/24 11:18:44;;;;;;;42.13;18.98;;;;;;;;;;5063986;28;20035;-60
2023/01/24 11:21:11;;;;;;;37.00;17.95;;;;;;;;;;5057426;28;20020;-58
2023/01/24 11:23:36;;;;;;;47.63;20.85;;;;;;;;;;5065615;28;20078;-58
2023/01/24 11:26:03;;;;;;;46.33;19.40;;;;;;;;;;5060323;28;20569;-58
2023/01/24 11:28:29;;;;;;;48.80;21.60;;;;;;;;;;5062477;28;20028;-58
2023/01/24 11:30:54;;;;;;;42.47;19.55;;;;;;;;;;5065746;28;20035;-58
2023/01/24 11:33:19;;;;;;;39.70;17.85;;;;;;;;;;5062714;28;20060;-58
2023/01/24 11:35:46;;;;;;;35.17;17.45;;;;;;;;;;5064399;28;20028;-59
2023/01/24 11:38:20;;;;;;;41.90;18.63;;;;;;;;;;5062214;28;20356;-58
2023/01/24 11:41:04;;;;;;;41.08;18.83;;;;;;;;;;5060169;28;20032;-58
2023/01/24 11:43:32;;;;;;;46.20;19.15;;;;;;;;;;5061425;28;20032;-58
2023/01/24 11:46:16;;;;;;;45.47;20.77;;;;;;;;;;5064899;28;20047;-58
2023/01/24 11:48:46;;;;;;;45.42;19.38;;;;;;;;;;5059908;28;20067;-58
2023/01/24 11:51:34;;;;;;;37.83;17.25;;;;;;;;;;5061048;28;20187;-60
2023/01/24 11:54:18;;;;;;;46.30;19.52;;;;;;;;;;5060154;28;20136;-59
2023/01/24 11:56:43;;;;;;;51.85;20.63;;;;;;;;;;5063579;28;20332;-57
2023/01/24 11:59:11;;;;;;;47.40;20.98;;;;;;;;;;5063876;28;20038;-58
2023/01/24 12:01:42;;;;;;;46.85;18.90;;;;;;;;;;5063444;28;20024;-58
2023/01/24 12:04:26;;;;;;;39.20;15.98;;;;;;;;;;5057123;28;20024;-58
2023/01/24 12:06:57;;;;;;;45.17;18.83;;;;;;;;;;5060798;28;20021;-59
2023/01/24 12:09:23;;;;;;;40.60;17.23;;;;;;;;;;5063838;28;20075;-60
2023/01/24 12:11:48;;;;;;;35.95;16.13;;;;;;;;;;5063392;28;20028;-59
2023/01/24 12:14:17;;;;;;;44.58;17.30;;;;;;;;;;5063293;28;20133;-59
2023/01/24 12:16:42;;;;;;;39.53;15.93;;;;;;;;;;5063553;28;20028;-59
2023/01/24 12:19:26;;;;;;;39.38;15.82;;;;;;;;;;5062968;28;20463;-59
2023/01/24 12:21:55;;;;;;;52.78;20.02;;;;;;;;;;5060882;28;20451;-59
2023/01/24 12:24:40;;;;;;;130.88;35.08;;;;;;;;;;5061594;28;20138;-59
2023/01/24 12:27:06;;;;;;;56.63;20.98;;;;;;;;;;5062712;28;20498;-59
2023/01/24 12:29:38;;;;;;;40.15;18.55;;;;;;;;;;5061928;28;20098;-60
2023/01/24 12:32:05;;;;;;;43.15;19.77;;;;;;;;;;5058821;28;20176;-59
2023/01/24 12:34:46;;;;;;;46.70;20.92;;;;;;;;;;5061599;28;20048;-59
2023/01/24 12:37:17;;;;;;;46.90;20.67;;;;;;;;;;5078099;28;20036;-58
2023/01/24 12:40:02;;;;;;;44.30;17.52;;;;;;;;;;5062250;28;20521;-59
2023/01/24 12:42:37;;;;;;;37.20;16.63;;;;;;;;;;5060597;28;20448;-59
2023/01/24 12:45:04;;;;;;;44.55;18.75;;;;;;;;;;5056449;28;20690;-58
2023/01/24 12:47:38;;;;;;;44.17;20.60;;;;;;;;;;5059739;28;20025;-58
2023/01/24 12:50:14;;;;;;;49.13;20.17;;;;;;;;;;5063753;28;20063;-60
2023/01/24 12:52:42;;;;;;;52.17;21.45;;;;;;;;;;5055520;28;20021;-58
2023/01/24 12:55:36;;;;;;;36.33;15.68;;;;;;;;;;5065602;28;20591;-57
2023/01/24 12:58:05;;;;;;;34.55;15.18;;;;;;;;;;5035769;28;20033;-58
2023/01/24 13:00:41;;;;;;;49.67;20.83;;;;;;;;;;5061031;28;20032;-58
2023/01/24 13:03:07;;;;;;;40.30;17.10;;;;;;;;;;5063371;28;20570;-58
2023/01/24 13:05:53;;;;;;;34.00;16.02;;;;;;;;;;5065721;28;20044;-58
2023/01/24 13:08:31;;;;;;;40.80;18.20;;;;;;;;;;5064932;28;20043;-60
2023/01/24 13:10:59;;;;;;;39.72;16.65;;;;;;;;;;5064532;28;20082;-58
2023/01/24 13:13:26;;;;;;;39.80;19.45;;;;;;;;;;5063949;28;20585;-59
2023/01/24 13:15:51;;;;;;;38.90;17.58;;;;;;;;;;5064793;28;20089;-60
2023/01/24 13:18:25;;;;;;;41.15;18.25;;;;;;;;;;5064114;28;20270;-60
2023/01/24 13:20:54;;;;;;;39.08;18.15;;;;;;;;;;5058314;28;20044;-60
2023/01/24 13:23:38;;;;;;;44.33;19.30;;;;;;;;;;5062242;28;20048;-58
2023/01/24 13:26:19;;;;;;;42.15;19.50;;;;;;;;;;5055755;28;20025;-58
2023/01/24 13:28:54;;;;;;;41.97;17.85;;;;;;;;;;5064801;28;20040;-58
2023/01/24 13:31:19;;;;;;;38.47;17.60;;;;;;;;;;5057336;28;20020;-58
2023/01/24 13:33:46;;;;;;;50.03;20.20;;;;;;;;;;5064356;28;20028;-58
2023/01/24 13:36:13;;;;;;;37.10;16.75;;;;;;;;;;5065288;28;20106;-58
2023/01/24 13:38:40;;;;;;;44.70;20.55;;;;;;;;;;5060417;28;20024;-58
2023/01/24 13:41:05;;;;;;;42.13;18.20;;;;;;;;;;5061821;28;20073;-58
2023/01/24 13:43:36;;;;;;;43.70;19.50;;;;;;;;;;5059142;28;20020;-58
2023/01/24 13:46:02;;;;;;;43.70;19.15;;;;;;;;;;5063376;28;20021;-58
2023/01/24 13:49:00;;;;;;;39.15;16.75;;;;;;;;;;5059159;28;20692;-58
2023/01/24 13:51:28;;;;;;;39.70;17.55;;;;;;;;;;5037497;28;20382;-57
2023/01/24 13:53:57;;;;;;;44.83;19.75;;;;;;;;;;5064878;28;20029;-60
2023/01/24 13:56:22;;;;;;;36.88;18.15;;;;;;;;;;5058691;28;20461;-59
2023/01/24 13:58:48;;;;;;;37.45;17.55;;;;;;;;;;5065238;28;20029;-58
2023/01/24 14:01:14;;;;;;;38.05;18.65;;;;;;;;;;5063598;28;20028;-58
2023/01/24 14:03:39;;;;;;;52.22;19.65;;;;;;;;;;5063019;28;20320;-59
2023/01/24 14:06:05;;;;;;;48.17;22.08;;;;;;;;;;5062575;28;20028;-60
2023/01/24 14:08:32;;;;;;;42.42;19.42;;;;;;;;;;5063047;28;20119;-58
2023/01/24 14:11:04;;;;;;;46.05;19.45;;;;;;;;;;5062687;28;20123;-58
2023/01/24 14:13:47;;;;;;;39.55;19.45;;;;;;;;;;5061046;28;20032;-58
2023/01/24 14:16:13;;;;;;;33.42;16.00;;;;;;;;;;5068324;28;20024;-58
2023/01/24 14:18:38;;;;;;;42.00;18.10;;;;;;;;;;5068789;28;20154;-58
2023/01/24 14:21:03;;;;;;;42.60;18.95;;;;;;;;;;5068740;28;20031;-60
2023/01/24 14:23:30;;;;;;;39.38;18.42;;;;;;;;;;5068684;28;20017;-58
2023/01/24 14:25:55;;;;;;;43.10;19.02;;;;;;;;;;5066489;28;20371;-58
2023/01/24 14:28:26;;;;;;;42.50;18.92;;;;;;;;;;5066344;28;20474;-58
2023/01/24 14:30:55;;;;;;;41.30;17.23;;;;;;;;;;5068405;28;20020;-57
2023/01/24 14:33:28;;;;;;;39.03;18.42;;;;;;;;;;5067869;28;20648;-58
2023/01/24 14:35:59;;;;;;;47.38;21.92;;;;;;;;;;5065077;28;20028;-58
2023/01/24 14:38:25;;;;;;;41.00;18.35;;;;;;;;;;5067888;28;20097;-57
2023/01/24 14:40:53;;;;;;;44.08;19.65;;;;;;;;;;5067437;28;20070;-57
2023/01/24 14:43:19;;;;;;;47.03;20.75;;;;;;;;;;5065519;28;20167;-58
2023/01/24 14:45:45;;;;;;;37.78;17.63;;;;;;;;;;5067381;28;20043;-60
2023/01/24 14:48:10;;;;;;;55.15;23.15;;;;;;;;;;5064948;28;20565;-58
2023/01/24 14:50:36;;;;;;;43.22;19.92;;;;;;;;;;5066090;28;20099;-57
2023/01/24 14:53:02;;;;;;;37.58;16.92;;;;;;;;;;5067180;28;20101;-57
2023/01/24 14:55:28;;;;;;;38.92;18.58;;;;;;;;;;5061313;28;20530;-57
2023/01/24 14:57:53;;;;;;;37.78;17.23;;;;;;;;;;5066792;28;20134;-58
2023/01/24 15:00:19;;;;;;;43.00;19.55;;;;;;;;;;5065000;28;20104;-58
2023/01/24 15:02:57;;;;;;;41.63;19.55;;;;;;;;;;5061236;28;20422;-59